sensor_id;sensor_type;location;lat;lon;timestamp;pressure;altitude;pressure_sealevel;temperature;humidity
18765;BME280;9511;54.242;12.448;2024-01-25T04:05:18;101243.88;;;5.65;91.55
18765;BME280;9511;54.242;12.448;2024-01-25T04:07:45;101257.84;;;5.64;91.41
18765;BME280;9511;54.242;12.448;2024-01-25T04:10:12;101260.47;;;5.64;91.50
18765;BME280;9511;54.242;12.448;2024-01-25T04:12:40;101251.09;;;5.69;91.45
18765;BME280;9511;54.242;12.448;2024-01-25T04:15:07;101252.00;;;5.69;91.62
18765;BME280;9511;54.242;12.448;2024-01-25T04:17:35;101271.09;;;5.67;91.85
18765;BME280;9511;54.242;12.448;2024-01-25T04:20:03;101277.34;;;5.69;91.69
18765;BME280;9511;54.242;12.448;2024-01-25T04:22:31;101278.25;;;5.69;91.81
18765;BME280;9511;54.242;12.448;2024-01-25T04:24:59;101305.22;;;5.67;91.87
18765;BME280;9511;54.242;12.448;2024-01-25T04:27:26;101320.06;;;5.66;91.42
18765;BME280;9511;54.242;12.448;2024-01-25T04:29:53;101311.94;;;5.62;92.02
18765;BME280;9511;54.242;12.448;2024-01-25T04:32:21;101328.84;;;5.67;92.01
18765;BME280;9511;54.242;12.448;2024-01-25T04:34:48;101333.13;;;5.65;91.90
18765;BME280;9511;54.242;12.448;2024-01-25T04:37:15;101319.16;;;5.66;91.99
18765;BME280;9511;54.242;12.448;2024-01-25T04:39:44;101332.28;;;5.66;91.97
18765;BME280;9511;54.242;12.448;2024-01-25T04:42:11;101340.16;;;5.66;92.26
18765;BME280;9511;54.242;12.448;2024-01-25T04:44:38;101342.66;;;5.63;92.22
18765;BME280;9511;54.242;12.448;2024-01-25T04:47:06;101346.06;;;5.62;92.29
18765;BME280;9511;54.242;12.448;2024-01-25T04:49:33;101342.66;;;5.63;92.03
18765;BME280;9511;54.242;12.448;2024-01-25T04:52:00;101320.25;;;5.85;92.76
18765;BME280;9511;54.242;12.448;2024-01-25T04:54:27;101339.31;;;5.98;91.97
18765;BME280;9511;54.242;12.448;2024-01-25T04:56:56;101342.84;;;5.98;91.50
18765;BME280;9511;54.242;12.448;2024-01-25T04:59:24;101352.00;;;6.06;91.32
18765;BME280;9511;54.242;12.448;2024-01-25T05:01:51;101354.31;;;6.00;91.23
18765;BME280;9511;54.242;12.448;2024-01-25T05:04:19;101345.91;;;6.07;91.32
18765;BME280;9511;54.242;12.448;2024-01-25T05:06:47;101338.53;;;6.00;91.28
18765;BME280;9511;54.242;12.448;2024-01-25T05:09:14;101379.41;;;5.95;91.30
18765;BME280;9511;54.242;12.448;2024-01-25T05:11:41;101363.84;;;5.98;91.18
18765;BME280;9511;54.242;12.448;2024-01-25T05:14:10;101374.34;;;5.98;91.04
18765;BME280;9511;54.242;12.448;2024-01-25T05:16:37;101363.84;;;5.98;90.58
18765;BME280;9511;54.242;12.448;2024-01-25T05:19:04;101368.75;;;6.08;90.97
18765;BME280;9511;54.242;12.448;2024-01-25T05:21:31;101378.00;;;6.02;90.68
18765;BME280;9511;54.242;12.448;2024-01-25T05:23:59;101387.28;;;5.95;90.62
18765;BME280;9511;54.242;12.448;2024-01-25T05:26:26;101391.59;;;5.78;90.53
18765;BME280;9511;54.242;12.448;2024-01-25T05:28:54;101394.00;;;5.74;90.98
18765;BME280;9511;54.242;12.448;2024-01-25T05:31:22;101423.66;;;5.73;91.19
18765;BME280;9511;54.242;12.448;2024-01-25T05:33:49;101404.50;;;5.74;91.20
18765;BME280;9511;54.242;12.448;2024-01-25T05:36:17;101417.63;;;5.74;91.14
18765;BME280;9511;54.242;12.448;2024-01-25T05:38:44;101425.31;;;5.71;91.42
18765;BME280;9511;54.242;12.448;2024-01-25T05:41:11;101427.94;;;5.71;91.51
18765;BME280;9511;54.242;12.448;2024-01-25T05:43:39;101424.50;;;5.72;91.55
18765;BME280;9511;54.242;12.448;2024-01-25T05:46:06;101427.03;;;5.70;91.24
18765;BME280;9511;54.242;12.448;2024-01-25T05:48:37;101427.94;;;5.71;91.83
18765;BME280;9511;54.242;12.448;2024-01-25T05:51:04;101430.50;;;5.69;91.92
18765;BME280;9511;54.242;12.448;2024-01-25T05:53:31;101440.09;;;5.69;91.93
18765;BME280;9511;54.242;12.448;2024-01-25T05:55:59;101453.22;;;5.69;91.73
18765;BME280;9511;54.242;12.448;2024-01-25T05:58:26;101453.03;;;5.66;91.67
18765;BME280;9511;54.242;12.448;2024-01-25T06:00:54;101460.91;;;5.66;91.76
18765;BME280;9511;54.242;12.448;2024-01-25T06:03:21;101485.25;;;5.63;91.70
18765;BME280;9511;54.242;12.448;2024-01-25T06:05:49;101459.91;;;5.64;91.75
18765;BME280;9511;54.242;12.448;2024-01-25T06:08:17;101468.50;;;5.61;91.80
18765;BME280;9511;54.242;12.448;2024-01-25T06:10:44;101479.75;;;5.58;92.08
18765;BME280;9511;54.242;12.448;2024-01-25T06:13:11;101485.63;;;5.54;92.06
18765;BME280;9511;54.242;12.448;2024-01-25T06:15:39;101483.84;;;5.53;92.01
18765;BME280;9511;54.242;12.448;2024-01-25T06:18:06;101476.50;;;5.48;92.14
18765;BME280;9511;54.242;12.448;2024-01-25T06:20:33;101490.63;;;5.50;92.46
18765;BME280;9511;54.242;12.448;2024-01-25T06:23:02;101488.66;;;5.46;92.30
18765;BME280;9511;54.242;12.448;2024-01-25T06:25:29;101501.66;;;5.44;92.34
18765;BME280;9511;54.242;12.448;2024-01-25T06:27:56;101513.63;;;5.39;92.38
18765;BME280;9511;54.242;12.448;2024-01-25T06:30:25;101521.41;;;5.38;92.78
18765;BME280;9511;54.242;12.448;2024-01-25T06:32:53;101512.53;;;5.36;92.77
18765;BME280;9511;54.242;12.448;2024-01-25T06:35:20;101516.88;;;5.35;92.82
18765;BME280;9511;54.242;12.448;2024-01-25T06:37:47;101512.34;;;5.32;93.27
18765;BME280;9511;54.242;12.448;2024-01-25T06:40:16;101523.66;;;5.31;93.66
18765;BME280;9511;54.242;12.448;2024-01-25T06:42:45;101515.78;;;5.31;93.21
18765;BME280;9511;54.242;12.448;2024-01-25T06:45:14;101531.63;;;5.33;93.89
18765;BME280;9511;54.242;12.448;2024-01-25T06:47:41;101544.66;;;5.31;93.76
18765;BME280;9511;54.242;12.448;2024-01-25T06:50:09;101549.81;;;5.30;94.17
18765;BME280;9511;54.242;12.448;2024-01-25T06:52:36;101553.25;;;5.29;94.08
18765;BME280;9511;54.242;12.448;2024-01-25T06:55:04;101561.00;;;5.27;94.43
18765;BME280;9511;54.242;12.448;2024-01-25T06:57:33;101555.69;;;5.26;94.36
18765;BME280;9511;54.242;12.448;2024-01-25T07:00:00;101558.31;;;5.26;94.27
18765;BME280;9511;54.242;12.448;2024-01-25T07:02:27;101561.75;;;5.25;94.54
18765;BME280;9511;54.242;12.448;2024-01-25T07:04:55;101565.34;;;5.27;94.48
18765;BME280;9511;54.242;12.448;2024-01-25T07:07:23;101579.50;;;5.29;94.56
18765;BME280;9511;54.242;12.448;2024-01-25T07:09:50;101578.41;;;5.25;94.66
18765;BME280;9511;54.242;12.448;2024-01-25T07:12:17;101576.50;;;5.23;94.74
18765;BME280;9511;54.242;12.448;2024-01-25T07:14:46;101571.88;;;5.19;94.81
18765;BME280;9511;54.242;12.448;2024-01-25T07:17:13;101580.94;;;5.24;94.75
18765;BME280;9511;54.242;12.448;2024-01-25T07:19:40;101572.09;;;5.22;95.04
18765;BME280;9511;54.242;12.448;2024-01-25T07:22:07;101573.59;;;5.18;95.34
18765;BME280;9511;54.242;12.448;2024-01-25T07:24:35;101590.16;;;5.17;95.46
18765;BME280;9511;54.242;12.448;2024-01-25T07:27:02;101613.56;;;5.14;95.91
18765;BME280;9511;54.242;12.448;2024-01-25T07:29:29;101602.78;;;5.10;95.77
18765;BME280;9511;54.242;12.448;2024-01-25T07:31:58;101601.88;;;5.09;96.15
18765;BME280;9511;54.242;12.448;2024-01-25T07:34:25;101623.69;;;5.08;96.38
18765;BME280;9511;54.242;12.448;2024-01-25T07:36:52;101597.38;;;5.06;96.74
18765;BME280;9511;54.242;12.448;2024-01-25T07:39:20;101627.13;;;5.07;96.81
18765;BME280;9511;54.242;12.448;2024-01-25T07:41:47;101633.88;;;5.03;97.22
18765;BME280;9511;54.242;12.448;2024-01-25T07:44:14;101629.28;;;4.99;97.11
18765;BME280;9511;54.242;12.448;2024-01-25T07:46:42;101627.66;;;5.01;97.69
18765;BME280;9511;54.242;12.448;2024-01-25T07:49:11;101637.16;;;4.99;97.49
18765;BME280;9511;54.242;12.448;2024-01-25T07:51:38;101632.81;;;5.00;97.72
18765;BME280;9511;54.242;12.448;2024-01-25T07:54:05;101644.72;;;4.95;97.89
18765;BME280;9511;54.242;12.448;2024-01-25T07:56:33;101639.41;;;4.93;98.08
18765;BME280;9511;54.242;12.448;2024-01-25T07:59:00;101677.78;;;4.93;98.31
18765;BME280;9511;54.242;12.448;2024-01-25T08:01:27;101650.66;;;4.92;98.40
18765;BME280;9511;54.242;12.448;2024-01-25T08:03:55;101667.31;;;4.93;98.58
18765;BME280;9511;54.242;12.448;2024-01-25T08:06:24;101664.59;;;4.91;98.43
18765;BME280;9511;54.242;12.448;2024-01-25T08:08:52;101650.88;;;4.95;98.55
18765;BME280;9511;54.242;12.448;2024-01-25T08:11:19;101656.72;;;4.91;98.77
18765;BME280;9511;54.242;12.448;2024-01-25T08:13:47;101670.75;;;4.92;98.61
18765;BME280;9511;54.242;12.448;2024-01-25T08:16:15;101685.78;;;4.94;99.11
18765;BME280;9511;54.242;12.448;2024-01-25T08:18:45;101667.22;;;4.91;98.82
18765;BME280;9511;54.242;12.448;2024-01-25T08:21:13;101673.47;;;4.93;98.63
18765;BME280;9511;54.242;12.448;2024-01-25T08:23:42;101681.59;;;4.98;98.85
18765;BME280;9511;54.242;12.448;2024-01-25T08:26:09;101698.88;;;4.94;98.71
18765;BME280;9511;54.242;12.448;2024-01-25T08:28:39;101686.69;;;4.95;98.93
18765;BME280;9511;54.242;12.448;2024-01-25T08:31:06;101684.97;;;4.95;98.73
18765;BME280;9511;54.242;12.448;2024-01-25T08:33:33;101698.06;;;4.95;98.89
18765;BME280;9511;54.242;12.448;2024-01-25T08:36:01;101707.81;;;4.98;98.81
18765;BME280;9511;54.242;12.448;2024-01-25T08:38:28;101698.06;;;4.95;98.85
18765;BME280;9511;54.242;12.448;2024-01-25T08:40:57;101727.81;;;4.96;98.64
18765;BME280;9511;54.242;12.448;2024-01-25T08:43:43;101707.81;;;4.98;98.63
18765;BME280;9511;54.242;12.448;2024-01-25T08:46:29;101714.19;;;5.01;98.71
18765;BME280;9511;54.242;12.448;2024-01-25T08:48:59;101725.66;;;5.03;98.48
18765;BME280;9511;54.242;12.448;2024-01-25T08:51:27;101713.66;;;5.07;98.48
18765;BME280;9511;54.242;12.448;2024-01-25T08:53:54;101731.94;;;5.05;98.31
18765;BME280;9511;54.242;12.448;2024-01-25T08:56:23;101732.09;;;5.09;98.18
18765;BME280;9511;54.242;12.448;2024-01-25T08:58:50;101748.66;;;5.07;98.18
18765;BME280;9511;54.242;12.448;2024-01-25T09:01:18;101748.22;;;5.15;98.01
18765;BME280;9511;54.242;12.448;2024-01-25T09:03:45;101734.28;;;5.16;98.07
18765;BME280;9511;54.242;12.448;2024-01-25T09:06:13;101743.19;;;5.18;97.84
18765;BME280;9511;54.242;12.448;2024-01-25T09:08:41;101745.97;;;5.21;97.87
18765;BME280;9511;54.242;12.448;2024-01-25T09:11:08;101752.03;;;5.20;97.69
18765;BME280;9511;54.242;12.448;2024-01-25T09:13:37;101742.56;;;5.22;97.58
18765;BME280;9511;54.242;12.448;2024-01-25T09:16:06;101755.69;;;5.22;97.56
18765;BME280;9511;54.242;12.448;2024-01-25T09:18:34;101756.84;;;5.27;97.52
18765;BME280;9511;54.242;12.448;2024-01-25T09:21:01;101763.81;;;5.26;97.43
18765;BME280;9511;54.242;12.448;2024-01-25T09:23:28;101776.53;;;5.20;97.44
18765;BME280;9511;54.242;12.448;2024-01-25T09:25:56;101770.78;;;5.26;97.47
18765;BME280;9511;54.242;12.448;2024-01-25T09:28:23;101775.22;;;5.27;97.42
18765;BME280;9511;54.242;12.448;2024-01-25T09:30:51;101788.72;;;5.33;97.43
18765;BME280;9511;54.242;12.448;2024-01-25T09:33:19;101800.13;;;5.33;96.89
18765;BME280;9511;54.242;12.448;2024-01-25T09:35:46;101783.47;;;5.33;97.19
18765;BME280;9511;54.242;12.448;2024-01-25T09:38:14;101807.28;;;5.36;97.07
18765;BME280;9511;54.242;12.448;2024-01-25T09:40:41;101802.25;;;5.39;96.83
18765;BME280;9511;54.242;12.448;2024-01-25T09:43:09;101803.03;;;5.38;96.50
18765;BME280;9511;54.242;12.448;2024-01-25T09:45:36;101800.59;;;5.41;96.48
18765;BME280;9511;54.242;12.448;2024-01-25T09:48:05;101801.22;;;5.37;96.38
18765;BME280;9511;54.242;12.448;2024-01-25T09:50:33;101808.47;;;5.41;96.19
18765;BME280;9511;54.242;12.448;2024-01-25T09:53:02;101803.84;;;5.37;96.36
18765;BME280;9511;54.242;12.448;2024-01-25T09:55:32;101811.28;;;5.44;96.32
18765;BME280;9511;54.242;12.448;2024-01-25T09:58:03;101788.31;;;5.40;96.20
18765;BME280;9511;54.242;12.448;2024-01-25T10:00:33;101803.69;;;5.49;95.84
18765;BME280;9511;54.242;12.448;2024-01-25T10:03:01;101796.94;;;5.52;95.65
18765;BME280;9511;54.242;12.448;2024-01-25T10:05:29;101851.22;;;5.53;95.53
18765;BME280;9511;54.242;12.448;2024-01-25T10:07:57;101833.66;;;5.52;95.65
18765;BME280;9511;54.242;12.448;2024-01-25T10:10:27;101831.06;;;5.52;95.41
18765;BME280;9511;54.242;12.448;2024-01-25T10:12:59;101853.03;;;5.54;95.02
18765;BME280;9511;54.242;12.448;2024-01-25T10:15:26;101845.38;;;5.57;95.21
18765;BME280;9511;54.242;12.448;2024-01-25T10:17:54;101856.69;;;5.56;94.94
18765;BME280;9511;54.242;12.448;2024-01-25T10:20:21;101858.88;;;5.50;95.11
18765;BME280;9511;54.242;12.448;2024-01-25T10:22:52;101865.25;;;5.54;94.91
18765;BME280;9511;54.242;12.448;2024-01-25T10:25:19;101859.00;;;5.52;94.74
18765;BME280;9511;54.242;12.448;2024-01-25T10:27:47;101858.50;;;5.57;94.95
18765;BME280;9511;54.242;12.448;2024-01-25T10:30:14;101874.41;;;5.60;94.86
18765;BME280;9511;54.242;12.448;2024-01-25T10:32:42;101877.84;;;5.59;94.73
18765;BME280;9511;54.242;12.448;2024-01-25T10:35:10;101865.56;;;5.58;94.58
18765;BME280;9511;54.242;12.448;2024-01-25T10:37:39;101874.53;;;5.62;94.60
18765;BME280;9511;54.242;12.448;2024-01-25T10:40:10;101904.09;;;5.59;94.52
18765;BME280;9511;54.242;12.448;2024-01-25T10:42:37;101884.09;;;5.62;94.57
18765;BME280;9511;54.242;12.448;2024-01-25T10:45:07;101880.56;;;5.61;94.63
18765;BME280;9511;54.242;12.448;2024-01-25T10:47:35;101908.75;;;5.64;94.77
18765;BME280;9511;54.242;12.448;2024-01-25T10:50:04;101893.00;;;5.64;94.45
18765;BME280;9511;54.242;12.448;2024-01-25T10:52:35;101904.78;;;5.70;94.46
18765;BME280;9511;54.242;12.448;2024-01-25T10:55:04;101895.19;;;5.71;94.53
18765;BME280;9511;54.242;12.448;2024-01-25T10:57:39;101911.75;;;5.70;94.07
18765;BME280;9511;54.242;12.448;2024-01-25T11:00:10;101902.63;;;5.78;94.14
18765;BME280;9511;54.242;12.448;2024-01-25T11:02:37;101904.44;;;5.79;94.02
18765;BME280;9511;54.242;12.448;2024-01-25T11:05:08;101893.22;;;5.81;93.87
18765;BME280;9511;54.242;12.448;2024-01-25T11:07:44;101912.53;;;5.82;93.85
18765;BME280;9511;54.242;12.448;2024-01-25T11:10:14;101911.31;;;5.77;93.80
18765;BME280;9511;54.242;12.448;2024-01-25T11:12:50;101917.34;;;5.89;93.88
18765;BME280;9511;54.242;12.448;2024-01-25T11:15:20;101911.41;;;5.92;93.45
18765;BME280;9511;54.242;12.448;2024-01-25T11:17:53;101918.75;;;5.84;93.37
18765;BME280;9511;54.242;12.448;2024-01-25T11:20:21;101920.09;;;5.77;93.43
18765;BME280;9511;54.242;12.448;2024-01-25T11:22:55;101922.50;;;5.88;93.66
18765;BME280;9511;54.242;12.448;2024-01-25T11:25:27;101921.31;;;5.82;93.51
18765;BME280;9511;54.242;12.448;2024-01-25T11:28:07;101930.72;;;5.92;93.47
18765;BME280;9511;54.242;12.448;2024-01-25T11:30:34;101913.81;;;5.89;93.45
18765;BME280;9511;54.242;12.448;2024-01-25T11:33:04;101923.66;;;5.91;92.97
18765;BME280;9511;54.242;12.448;2024-01-25T11:35:32;101931.75;;;6.09;93.33
18765;BME280;9511;54.242;12.448;2024-01-25T11:37:59;101919.69;;;6.12;92.67
18765;BME280;9511;54.242;12.448;2024-01-25T11:40:27;101937.00;;;6.09;92.59
18765;BME280;9511;54.242;12.448;2024-01-25T11:42:56;101922.84;;;6.07;92.44
18765;BME280;9511;54.242;12.448;2024-01-25T11:45:25;101936.28;;;6.11;92.33
18765;BME280;9511;54.242;12.448;2024-01-25T11:47:52;101932.22;;;6.17;92.37
18765;BME280;9511;54.242;12.448;2024-01-25T11:50:20;101936.28;;;6.11;92.33
18765;BME280;9511;54.242;12.448;2024-01-25T11:52:48;101930.16;;;6.26;92.13
18765;BME280;9511;54.242;12.448;2024-01-25T11:55:16;101941.03;;;6.32;91.39
18765;BME280;9511;54.242;12.448;2024-01-25T11:57:44;101933.97;;;6.31;91.68
18765;BME280;9511;54.242;12.448;2024-01-25T12:00:14;101936.84;;;6.21;91.94
18765;BME280;9511;54.242;12.448;2024-01-25T12:02:44;101934.06;;;6.32;92.02
18765;BME280;9511;54.242;12.448;2024-01-25T12:05:11;101936.31;;;6.26;91.30
18765;BME280;9511;54.242;12.448;2024-01-25T12:07:40;101942.66;;;6.30;91.71
18765;BME280;9511;54.242;12.448;2024-01-25T12:10:08;101942.25;;;6.09;91.86
18765;BME280;9511;54.242;12.448;2024-01-25T12:12:36;101943.91;;;6.22;91.72
18765;BME280;9511;54.242;12.448;2024-01-25T12:15:05;101956.59;;;6.14;91.51
18765;BME280;9511;54.242;12.448;2024-01-25T12:17:33;101960.81;;;6.12;91.68
18765;BME280;9511;54.242;12.448;2024-01-25T12:20:04;101964.72;;;6.19;91.43
18765;BME280;9511;54.242;12.448;2024-01-25T12:22:37;101964.72;;;6.19;91.58
18765;BME280;9511;54.242;12.448;2024-01-25T12:25:07;101969.00;;;6.17;91.09
18765;BME280;9511;54.242;12.448;2024-01-25T12:27:34;101967.69;;;6.38;91.34
18765;BME280;9511;54.242;12.448;2024-01-25T12:30:01;101966.69;;;6.36;90.89
18765;BME280;9511;54.242;12.448;2024-01-25T12:32:30;101977.00;;;6.33;90.61
18765;BME280;9511;54.242;12.448;2024-01-25T12:34:59;101978.72;;;6.60;90.71
18765;BME280;9511;54.242;12.448;2024-01-25T12:37:28;101970.63;;;6.57;90.10
18765;BME280;9511;54.242;12.448;2024-01-25T12:39:55;101976.25;;;6.63;89.74
18765;BME280;9511;54.242;12.448;2024-01-25T12:42:22;101968.09;;;6.74;88.92
18765;BME280;9511;54.242;12.448;2024-01-25T12:44:52;101972.25;;;6.70;89.20
18765;BME280;9511;54.242;12.448;2024-01-25T12:47:20;101974.28;;;6.89;88.71
18765;BME280;9511;54.242;12.448;2024-01-25T12:49:47;101970.84;;;6.90;88.53
18765;BME280;9511;54.242;12.448;2024-01-25T12:52:15;101979.72;;;6.92;88.30
18765;BME280;9511;54.242;12.448;2024-01-25T12:54:44;101991.13;;;6.48;88.17
18765;BME280;9511;54.242;12.448;2024-01-25T12:57:19;101977.19;;;6.79;88.76
18765;BME280;9511;54.242;12.448;2024-01-25T12:59:46;101985.53;;;7.01;88.25
18765;BME280;9511;54.242;12.448;2024-01-25T13:02:14;101982.81;;;7.00;87.51
18765;BME280;9511;54.242;12.448;2024-01-25T13:04:42;101977.53;;;7.14;87.33
18765;BME280;9511;54.242;12.448;2024-01-25T13:07:09;101988.22;;;6.88;86.79
18765;BME280;9511;54.242;12.448;2024-01-25T13:09:37;101990.41;;;6.80;87.51
18765;BME280;9511;54.242;12.448;2024-01-25T13:12:04;102005.47;;;6.83;87.59
18765;BME280;9511;54.242;12.448;2024-01-25T13:14:33;102004.84;;;7.02;87.48
18765;BME280;9511;54.242;12.448;2024-01-25T13:17:00;102014.38;;;7.00;86.83
18765;BME280;9511;54.242;12.448;2024-01-25T13:19:27;102010.28;;;7.05;86.90
18765;BME280;9511;54.242;12.448;2024-01-25T13:21:55;102002.50;;;7.06;86.88
18765;BME280;9511;54.242;12.448;2024-01-25T13:24:22;102015.72;;;7.08;87.23
18765;BME280;9511;54.242;12.448;2024-01-25T13:26:49;102027.63;;;7.01;87.01
18765;BME280;9511;54.242;12.448;2024-01-25T13:29:17;102036.97;;;7.26;86.19
18765;BME280;9511;54.242;12.448;2024-01-25T13:31:45;102034.69;;;7.02;86.10
18765;BME280;9511;54.242;12.448;2024-01-25T13:34:13;102032.50;;;7.10;87.06
18765;BME280;9511;54.242;12.448;2024-01-25T13:36:41;102035.41;;;7.14;86.29
18765;BME280;9511;54.242;12.448;2024-01-25T13:39:08;102037.41;;;7.33;86.13
18765;BME280;9511;54.242;12.448;2024-01-25T13:41:36;102030.88;;;7.27;85.63
18765;BME280;9511;54.242;12.448;2024-01-25T13:44:03;102033.22;;;7.37;85.71
18765;BME280;9511;54.242;12.448;2024-01-25T13:46:30;102039.75;;;7.43;85.18
18765;BME280;9511;54.242;12.448;2024-01-25T13:48:59;102027.84;;;7.50;84.29
18765;BME280;9511;54.242;12.448;2024-01-25T13:51:26;102040.38;;;7.39;84.43
18765;BME280;9511;54.242;12.448;2024-01-25T13:53:54;102030.88;;;6.97;85.00
18765;BME280;9511;54.242;12.448;2024-01-25T13:56:21;102033.94;;;6.19;86.73
18765;BME280;9511;54.242;12.448;2024-01-25T13:58:48;102037.84;;;5.98;88.36
18765;BME280;9511;54.242;12.448;2024-01-25T14:01:16;102046.31;;;5.67;89.54
18765;BME280;9511;54.242;12.448;2024-01-25T14:03:43;102065.44;;;5.51;90.75
18765;BME280;9511;54.242;12.448;2024-01-25T14:06:12;102049.88;;;5.41;91.91
18765;BME280;9511;54.242;12.448;2024-01-25T14:08:39;102047.75;;;5.36;92.53
18765;BME280;9511;54.242;12.448;2024-01-25T14:11:06;102052.38;;;5.26;93.73
18765;BME280;9511;54.242;12.448;2024-01-25T14:13:33;102056.72;;;5.26;93.98
18765;BME280;9511;54.242;12.448;2024-01-25T14:16:01;102043.91;;;5.30;94.18
18765;BME280;9511;54.242;12.448;2024-01-25T14:18:28;102048.25;;;5.30;94.51
18765;BME280;9511;54.242;12.448;2024-01-25T14:20:56;102057.44;;;5.23;94.60
18765;BME280;9511;54.242;12.448;2024-01-25T14:23:24;102056.22;;;5.18;95.05
18765;BME280;9511;54.242;12.448;2024-01-25T14:25:51;102067.44;;;5.29;95.10
18765;BME280;9511;54.242;12.448;2024-01-25T14:28:19;102080.56;;;5.42;95.60
18765;BME280;9511;54.242;12.448;2024-01-25T14:30:47;102072.50;;;5.52;95.13
18765;BME280;9511;54.242;12.448;2024-01-25T14:33:14;102080.78;;;5.45;95.00
18765;BME280;9511;54.242;12.448;2024-01-25T14:35:42;102082.88;;;5.38;94.97
18765;BME280;9511;54.242;12.448;2024-01-25T14:38:09;102073.00;;;5.60;95.38
18765;BME280;9511;54.242;12.448;2024-01-25T14:40:38;102077.22;;;5.84;94.92
18765;BME280;9511;54.242;12.448;2024-01-25T14:43:05;102070.66;;;5.65;94.25
18765;BME280;9511;54.242;12.448;2024-01-25T14:45:32;102063.00;;;5.41;94.60
18765;BME280;9511;54.242;12.448;2024-01-25T14:48:02;102066.22;;;5.24;95.36
18765;BME280;9511;54.242;12.448;2024-01-25T14:50:29;102073.84;;;5.07;95.81
18765;BME280;9511;54.242;12.448;2024-01-25T14:52:58;102081.06;;;4.98;96.67
18765;BME280;9511;54.242;12.448;2024-01-25T14:55:26;102085.59;;;4.88;97.15
18765;BME280;9511;54.242;12.448;2024-01-25T14:57:54;102082.53;;;4.82;97.76
18765;BME280;9511;54.242;12.448;2024-01-25T15:00:22;102091.69;;;4.75;98.10
18765;BME280;9511;54.242;12.448;2024-01-25T15:02:49;102097.81;;;4.75;99.03
18765;BME280;9511;54.242;12.448;2024-01-25T15:05:16;102109.59;;;4.69;99.31
18765;BME280;9511;54.242;12.448;2024-01-25T15:07:45;102113.84;;;4.67;99.43
18765;BME280;9511;54.242;12.448;2024-01-25T15:10:12;102111.88;;;4.64;99.57
18765;BME280;9511;54.242;12.448;2024-01-25T15:12:39;102116.13;;;4.62;100.00
18765;BME280;9511;54.242;12.448;2024-01-25T15:15:09;102116.03;;;4.61;100.00
18765;BME280;9511;54.242;12.448;2024-01-25T15:17:37;102122.66;;;4.56;100.00
18765;BME280;9511;54.242;12.448;2024-01-25T15:20:05;102123.47;;;4.55;100.00
18765;BME280;9511;54.242;12.448;2024-01-25T15:22:32;102124.25;;;4.53;100.00
18765;BME280;9511;54.242;12.448;2024-01-25T15:25:00;102120.72;;;4.53;100.00
18765;BME280;9511;54.242;12.448;2024-01-25T15:27:27;102124.94;;;4.51;100.00
18765;BME280;9511;54.242;12.448;2024-01-25T15:29:54;102128.25;;;4.48;100.00
18765;BME280;9511;54.242;12.448;2024-01-25T15:32:23;102129.84;;;4.46;100.00
18765;BME280;9511;54.242;12.448;2024-01-25T15:34:50;102124.59;;;4.46;100.00
18765;BME280;9511;54.242;12.448;2024-01-25T15:37:17;102135.44;;;4.39;100.00
18765;BME280;9511;54.242;12.448;2024-01-25T15:39:44;102140.47;;;4.36;100.00
18765;BME280;9511;54.242;12.448;2024-01-25T15:42:12;102157.88;;;4.36;100.00
18765;BME280;9511;54.242;12.448;2024-01-25T15:44:40;102147.09;;;4.31;100.00
18765;BME280;9511;54.242;12.448;2024-01-25T15:47:07;102161.19;;;4.33;100.00
18765;BME280;9511;54.242;12.448;2024-01-25T15:49:36;102157.69;;;4.33;100.00
18765;BME280;9511;54.242;12.448;2024-01-25T15:52:03;102170.53;;;4.30;100.00
18765;BME280;9511;54.242;12.448;2024-01-25T15:54:31;102173.28;;;4.31;100.00
18765;BME280;9511;54.242;12.448;2024-01-25T15:56:58;102174.19;;;4.32;100.00
18765;BME280;9511;54.242;12.448;2024-01-25T15:59:26;102168.84;;;4.30;100.00
18765;BME280;9511;54.242;12.448;2024-01-25T16:01:53;102179.91;;;4.26;100.00
18765;BME280;9511;54.242;12.448;2024-01-25T16:04:20;102163.38;;;4.27;100.00
18765;BME280;9511;54.242;12.448;2024-01-25T16:06:49;102172.03;;;4.26;100.00
18765;BME280;9511;54.242;12.448;2024-01-25T16:09:17;102170.44;;;4.28;100.00
18765;BME280;9511;54.242;12.448;2024-01-25T16:11:44;102168.38;;;4.24;100.00
18765;BME280;9511;54.242;12.448;2024-01-25T16:14:11;102185.25;;;4.16;100.00
18765;BME280;9511;54.242;12.448;2024-01-25T16:16:39;102187.88;;;4.16;100.00
18765;BME280;9511;54.242;12.448;2024-01-25T16:19:06;102180.72;;;4.13;100.00
18765;BME280;9511;54.242;12.448;2024-01-25T16:21:33;102179.78;;;4.13;100.00
18765;BME280;9511;54.242;12.448;2024-01-25T16:24:02;102179.13;;;4.04;100.00
18765;BME280;9511;54.242;12.448;2024-01-25T16:26:31;102176.16;;;3.99;100.00
18765;BME280;9511;54.242;12.448;2024-01-25T16:28:58;102177.88;;;3.98;100.00
18765;BME280;9511;54.242;12.448;2024-01-25T16:31:25;102187.53;;;3.99;100.00
18765;BME280;9511;54.242;12.448;2024-01-25T16:33:53;102193.56;;;3.98;100.00
18765;BME280;9511;54.242;12.448;2024-01-25T16:36:20;102185.81;;;4.00;100.00
18765;BME280;9511;54.242;12.448;2024-01-25T16:38:48;102190.97;;;3.98;100.00
18765;BME280;9511;54.242;12.448;2024-01-25T16:41:16;102177.75;;;3.97;100.00
18765;BME280;9511;54.242;12.448;2024-01-25T16:43:44;102179.34;;;3.95;100.00
18765;BME280;9511;54.242;12.448;2024-01-25T16:46:11;102175.59;;;3.91;100.00
18765;BME280;9511;54.242;12.448;2024-01-25T16:48:38;102186.06;;;3.91;100.00
18765;BME280;9511;54.242;12.448;2024-01-25T16:51:06;102184.81;;;3.98;100.00
18765;BME280;9511;54.242;12.448;2024-01-25T16:53:33;102183.66;;;3.94;100.00
18765;BME280;9511;54.242;12.448;2024-01-25T16:56:00;102194.28;;;3.96;100.00
18765;BME280;9511;54.242;12.448;2024-01-25T16:58:29;102191.88;;;3.99;100.00
18765;BME280;9511;54.242;12.448;2024-01-25T17:00:56;102184.72;;;3.96;100.00
18765;BME280;9511;54.242;12.448;2024-01-25T17:03:24;102188.34;;;3.98;100.00
18765;BME280;9511;54.242;12.448;2024-01-25T17:05:51;102193.31;;;3.95;100.00